Time;durP1;ratioP1;P1;durP2;ratioP2;P2;SDS_P1;SDS_P2;PMS_P1;PMS_P2;Temp;Humidity;BMP_temperature;BMP_pressure;BME280_temperature;BME280_humidity;BME280_pressure;Samples;Min_cycle;Max_cycle;Signal;HPM_P1;HPM_P2
2021/11/07 00:12:42;;;;;;;4.70;2.60;;;10.40;99.90;;;8.86;82.17;101522.59;2566761;30;136604;-40
2021/11/07 00:15:14;;;;;;;4.25;2.70;;;10.40;99.90;;;8.85;81.81;101511.91;2567508;30;138443;-40
2021/11/07 00:17:48;;;;;;;6.68;3.05;;;10.40;99.90;;;8.82;82.16;101506.84;2566676;30;136938;-40
2021/11/07 00:20:30;;;;;;;5.90;2.80;;;10.30;99.90;;;8.88;83.05;101519.69;2565171;30;138402;-39
2021/11/07 00:23:07;;;;;;;5.68;2.72;;;10.40;99.90;;;8.82;84.19;101529.44;2566698;30;136807;-40
2021/11/07 00:28:22;;;;;;;4.38;2.72;;;10.30;99.90;;;8.74;85.69;101511.28;2567935;30;138016;-40
2021/11/07 00:36:56;;;;;;;6.88;2.70;;;10.20;99.90;;;8.65;87.19;101514.28;2566326;30;138433;-40
2021/11/07 00:42:09;;;;;;;5.70;2.58;;;10.20;99.90;;;8.61;87.53;101500.22;2568594;30;137341;-39
2021/11/07 00:47:43;;;;;;;5.65;3.00;;;10.10;99.90;;;8.57;89.18;101504.31;2568310;30;138220;-40
2021/11/07 00:50:15;;;;;;;7.05;2.95;;;10.10;99.90;;;8.52;89.86;101495.88;2568856;30;137095;-40
2021/11/07 00:53:10;;;;;;;6.65;2.92;;;10.10;99.90;;;8.49;90.82;101495.22;2568809;30;137448;-40
2021/11/07 00:55:54;;;;;;;6.57;3.05;;;10.00;99.90;;;8.47;91.85;101488.22;2567403;30;136960;-40
2021/11/07 00:58:33;;;;;;;7.10;3.15;;;10.00;99.90;;;8.40;93.07;101481.81;2566512;30;138490;-39
2021/11/07 01:01:03;;;;;;;5.97;3.22;;;10.00;99.90;;;8.34;93.37;101484.22;2570576;30;137570;-40
2021/11/07 01:03:31;;;;;;;5.07;2.90;;;9.90;99.90;;;8.32;93.99;101483.56;2569669;30;138226;-40
2021/11/07 01:05:59;;;;;;;7.95;3.75;;;9.90;99.90;;;8.29;94.36;101480.38;2567573;30;136986;-39
2021/11/07 01:08:26;;;;;;;9.40;3.78;;;9.80;99.90;;;8.23;94.58;101468.34;2568904;30;138605;-40
2021/11/07 01:10:57;;;;;;;9.88;3.40;;;9.80;99.90;;;8.21;94.60;101462.25;2569736;30;137615;-40
2021/11/07 01:13:26;;;;;;;8.43;3.35;;;9.80;99.90;;;8.23;94.82;101451.19;2567178;30;138099;-40
2021/11/07 01:15:55;;;;;;;7.88;3.80;;;9.70;99.90;;;8.18;94.70;101444.41;2569255;30;136808;-39
2021/11/07 01:18:23;;;;;;;6.63;3.47;;;9.70;99.90;;;8.21;94.76;101438.59;2569217;30;138143;-40
2021/11/07 01:20:52;;;;;;;6.57;3.55;;;9.70;99.90;;;8.17;94.99;101450.03;2569489;30;137188;-39
2021/11/07 01:23:32;;;;;;;6.70;3.80;;;9.70;99.90;;;8.20;95.10;101455.13;2568927;30;138248;-40
2021/11/07 01:26:44;;;;;;;6.22;3.88;;;9.70;99.90;;;8.18;95.96;101458.00;2569244;30;136780;-40
2021/11/07 01:29:00;;;;;;;7.35;3.50;;;9.70;99.90;;;8.15;96.30;101446.66;2569850;30;137415;-40
2021/11/07 01:31:28;;;;;;;7.27;3.57;;;9.70;99.90;;;8.13;96.47;101438.69;2569366;30;137559;-40
2021/11/07 01:33:58;;;;;;;;;;;9.70;99.90;;;8.14;96.66;101444.97;2569299;30;138298;-40
2021/11/07 01:39:03;;;;;;;7.28;4.05;;;9.70;99.90;;;8.12;96.87;101447.88;2568351;30;138196;-40
2021/11/07 01:41:39;;;;;;;7.60;3.75;;;9.60;99.90;;;8.17;97.27;101448.16;2570635;30;137239;-39
2021/11/07 01:44:08;;;;;;;7.55;4.15;;;9.60;99.90;;;8.14;97.45;101444.97;2569168;30;138941;-39
2021/11/07 01:46:38;;;;;;;7.10;3.90;;;9.70;99.90;;;8.09;98.48;101448.22;2568316;30;137543;-40
2021/11/07 01:49:11;;;;;;;7.65;3.80;;;9.60;99.90;;;8.09;98.90;101450.09;2568424;30;137254;-39
2021/11/07 01:51:48;;;;;;;8.90;3.95;;;9.60;99.90;;;8.06;99.67;101443.16;2569087;30;137214;-39
2021/11/07 01:57:21;;;;;;;9.40;4.07;;;9.60;99.90;;;7.97;100.00;101428.78;2567402;30;137430;-39
2021/11/07 01:59:57;;;;;;;6.68;3.78;;;9.60;99.90;;;7.99;100.00;101425.88;2567123;30;138262;-39
2021/11/07 02:02:31;;;;;;;7.63;4.07;;;9.50;99.90;;;7.96;100.00;101423.53;2568714;30;137441;-39
2021/11/07 02:04:58;;;;;;;7.35;3.88;;;9.50;99.90;;;7.87;100.00;101415.41;2568069;30;138081;-40
2021/11/07 02:07:26;;;;;;;;;;;9.50;99.90;;;7.86;100.00;101415.63;2568681;30;137611;-39
2021/11/07 02:09:54;;;;;;;6.18;3.75;;;9.40;99.90;;;7.83;100.00;101399.69;2568121;30;138364;-39
2021/11/07 02:12:22;;;;;;;7.90;3.95;;;9.40;99.90;;;7.76;100.00;101400.38;2565736;30;137099;-39
2021/11/07 02:14:49;;;;;;;8.85;4.40;;;9.40;99.90;;;7.80;100.00;101403.59;2567223;30;138117;-40
2021/11/07 02:17:17;;;;;;;7.65;3.80;;;9.40;99.90;;;7.78;100.00;101381.19;2567749;30;138586;-39
2021/11/07 02:19:46;;;;;;;6.00;3.83;;;9.40;99.90;;;7.80;100.00;101384.56;2568610;30;138103;-39
2021/11/07 02:22:14;;;;;;;7.97;3.72;;;9.40;99.90;;;7.81;100.00;101388.13;2568527;30;136918;-39
2021/11/07 02:24:42;;;;;;;;;;;9.40;99.90;;;7.82;100.00;101374.38;2569164;30;138190;-39
2021/11/07 02:27:10;;;;;;;7.78;3.70;;;9.30;99.90;;;7.81;100.00;101374.53;2568861;30;136779;-40
2021/11/07 02:29:39;;;;;;;5.25;3.65;;;9.40;99.90;;;7.82;100.00;101366.22;2566614;30;138797;-39
2021/11/07 02:32:07;;;;;;;7.68;4.05;;;9.40;99.90;;;7.76;100.00;101359.63;2567963;30;138184;-39
2021/11/07 02:34:35;;;;;;;9.35;3.63;;;9.40;99.90;;;7.75;100.00;101351.69;2566507;30;138954;-39
2021/11/07 02:37:03;;;;;;;;;;;9.30;99.90;;;7.74;100.00;101358.97;2568812;30;137673;-39
2021/11/07 02:39:31;;;;;;;7.78;3.83;;;9.30;99.90;;;7.77;100.00;101344.19;2568400;30;138133;-39
2021/11/07 02:41:59;;;;;;;7.65;3.95;;;9.30;99.90;;;7.77;100.00;101347.75;2567574;30;136684;-39
2021/11/07 02:44:49;;;;;;;6.40;4.03;;;9.30;99.90;;;7.73;100.00;101361.88;2567205;30;138159;-39
2021/11/07 02:47:18;;;;;;;7.75;3.72;;;9.30;99.90;;;7.76;100.00;101356.09;2567318;30;137707;-40
2021/11/07 02:49:45;;;;;;;7.03;4.10;;;9.30;99.90;;;7.81;100.00;101353.66;2567782;30;137301;-40
2021/11/07 02:52:15;;;;;;;5.90;3.80;;;9.30;99.90;;;7.82;100.00;101349.06;2568651;30;137454;-39
2021/11/07 02:54:43;;;;;;;6.22;3.63;;;9.40;99.90;;;7.80;100.00;101346.53;2567370;30;138454;-39
2021/11/07 02:57:17;;;;;;;;;;;9.40;99.90;;;7.78;100.00;101348.59;2568380;30;137477;-39
2021/11/07 02:59:48;;;;;;;6.32;3.92;;;9.30;99.90;;;7.76;100.00;101345.22;2567858;30;138270;-40
2021/11/07 03:02:16;;;;;;;6.60;4.28;;;9.30;99.90;;;7.77;100.00;101333.31;2567346;30;136830;-39
2021/11/07 03:04:43;;;;;;;6.30;4.88;;;9.30;99.90;;;7.82;100.00;101325.47;2568249;30;138405;-39
2021/11/07 03:07:11;;;;;;;7.18;4.72;;;9.30;99.90;;;7.78;100.00;101326.88;2576226;30;138491;-38
2021/11/07 03:09:40;;;;;;;6.45;4.47;;;9.30;99.90;;;7.82;100.00;101317.31;2570382;30;137324;-38
2021/11/07 03:12:11;;;;;;;7.75;4.85;;;9.40;99.90;;;7.84;100.00;101312.56;2570040;30;137537;-38
2021/11/07 03:14:47;;;;;;;6.55;5.03;;;9.40;99.90;;;7.79;100.00;101298.69;2570079;30;138826;-38
2021/11/07 03:17:20;;;;;;;7.22;4.50;;;9.40;99.90;;;7.78;100.00;101310.56;2570793;30;138210;-38
2021/11/07 03:19:48;;;;;;;7.47;4.95;;;9.40;99.90;;;7.82;100.00;101309.19;2570418;30;137249;-38
2021/11/07 03:22:20;;;;;;;7.43;4.78;;;9.40;99.90;;;7.91;100.00;101299.09;2568321;30;137594;-38
2021/11/07 03:24:54;;;;;;;6.75;4.63;;;9.40;99.90;;;7.86;100.00;101285.22;2567399;30;139331;-38
2021/11/07 03:27:47;;;;;;;6.38;4.55;;;9.40;99.90;;;7.90;100.00;101300.13;2568648;30;136977;-38
2021/11/07 03:33:28;;;;;;;7.50;5.18;;;9.50;99.90;;;7.94;100.00;101297.84;2569591;30;138432;-38
2021/11/07 03:36:01;;;;;;;7.22;4.53;;;9.50;99.90;;;7.90;100.00;101287.34;2568641;30;138301;-38
2021/11/07 03:38:29;;;;;;;7.38;4.90;;;9.50;99.90;;;7.95;100.00;101289.53;2570836;30;137436;-38
2021/11/07 03:40:56;;;;;;;7.63;4.82;;;9.50;99.90;;;7.95;100.00;101277.81;2568427;30;138971;-38
2021/11/07 03:43:28;;;;;;;7.55;4.60;;;9.50;99.90;;;7.99;100.00;101284.59;2570441;30;137583;-38
2021/11/07 03:45:57;;;;;;;7.65;5.15;;;9.50;99.90;;;8.00;100.00;101278.94;2569100;30;137196;-38
2021/11/07 03:48:25;;;;;;;7.65;4.40;;;9.50;99.90;;;8.05;100.00;101267.53;2569232;30;136999;-38
2021/11/07 03:50:53;;;;;;;6.65;4.35;;;9.60;99.90;;;8.05;100.00;101260.22;2569758;30;138223;-38
2021/11/07 03:53:21;;;;;;;6.47;4.32;;;9.60;99.90;;;8.08;100.00;101267.16;2569495;30;138587;-38
2021/11/07 03:55:48;;;;;;;6.32;4.55;;;9.60;99.90;;;8.10;100.00;101258.84;2569560;30;138575;-38
2021/11/07 03:58:16;;;;;;;9.15;4.65;;;9.60;99.90;;;8.09;100.00;101260.69;2568230;30;136890;-38
2021/11/07 04:00:44;;;;;;;6.20;4.60;;;9.60;99.90;;;8.09;100.00;101262.56;2568280;30;138327;-38
2021/11/07 04:03:13;;;;;;;6.03;4.43;;;9.60;99.90;;;8.10;100.00;101254.25;2571345;30;136805;-38
2021/11/07 04:05:41;;;;;;;6.93;4.55;;;9.60;99.90;;;8.13;100.00;101258.47;2566302;30;138419;-38
2021/11/07 04:08:08;;;;;;;8.00;4.80;;;9.70;99.90;;;8.17;100.00;101255.16;2570054;30;138151;-38
2021/11/07 04:10:36;;;;;;;6.55;4.53;;;9.60;99.90;;;8.15;100.00;101237.38;2567753;30;137539;-38
2021/11/07 04:13:08;;;;;;;6.40;4.88;;;9.70;99.90;;;8.20;100.00;101234.94;2569038;30;137357;-38
2021/11/07 04:15:36;;;;;;;8.02;4.50;;;9.70;99.90;;;8.18;100.00;101224.25;2567607;30;138205;-38
2021/11/07 04:18:05;;;;;;;7.35;4.68;;;9.70;99.90;;;8.20;100.00;101233.06;2571395;30;137650;-38
2021/11/07 04:20:33;;;;;;;6.85;4.65;;;9.70;99.90;;;8.24;100.00;101238.97;2568267;30;138300;-38
2021/11/07 04:23:01;;;;;;;;;;;9.70;99.90;;;8.25;100.00;101231.66;2569388;30;137096;-38
2021/11/07 04:25:28;;;;;;;5.47;4.10;;;9.70;99.90;;;8.26;100.00;101231.47;2568751;30;138265;-38
2021/11/07 04:27:56;;;;;;;5.93;4.30;;;9.80;99.90;;;8.23;100.00;101241.91;2567663;30;137234;-38
2021/11/07 04:30:23;;;;;;;6.22;4.45;;;9.70;99.90;;;8.29;100.00;101238.41;2569969;30;136651;-38
2021/11/07 04:32:51;;;;;;;7.97;4.28;;;9.80;99.90;;;8.30;100.00;101226.50;2567333;30;138400;-38
2021/11/07 04:35:18;;;;;;;6.50;4.75;;;9.80;99.90;;;8.32;100.00;101219.00;2568781;30;138343;-38
2021/11/07 04:37:46;;;;;;;6.30;4.38;;;9.80;99.90;;;8.37;100.00;101215.75;2569946;30;136983;-38
2021/11/07 04:40:15;;;;;;;5.53;3.90;;;9.80;99.90;;;8.32;100.00;101216.28;2568585;30;137457;-38
2021/11/07 04:42:46;;;;;;;6.57;4.22;;;9.80;99.90;;;8.38;100.00;101231.00;2570253;30;137647;-38
2021/11/07 04:45:14;;;;;;;6.80;4.07;;;9.90;99.90;;;8.39;100.00;101203.63;2568408;30;140665;-38
2021/11/07 04:47:43;;;;;;;6.47;4.50;;;9.90;99.90;;;8.37;100.00;101202.97;2568631;30;137796;-39
2021/11/07 04:50:14;;;;;;;6.15;3.90;;;9.90;99.90;;;8.42;100.00;101208.69;2570642;30;139167;-38
2021/11/07 04:52:42;;;;;;;6.13;4.30;;;9.90;99.90;;;8.40;100.00;101201.75;2567782;30;137391;-38
2021/11/07 04:55:11;;;;;;;5.95;3.95;;;9.90;99.90;;;8.43;100.00;101183.19;2568823;30;138459;-38
2021/11/07 04:57:42;;;;;;;6.68;4.32;;;9.90;99.90;;;8.47;100.00;101191.81;2570502;30;137487;-38
2021/11/07 05:00:15;;;;;;;7.00;4.38;;;10.00;99.90;;;8.51;100.00;101184.16;2568407;30;137875;-38
2021/11/07 05:02:42;;;;;;;6.38;3.95;;;10.00;99.90;;;8.51;100.00;101195.03;2567883;30;138273;-38
2021/11/07 05:05:10;;;;;;;7.38;4.38;;;10.00;99.90;;;8.53;100.00;101190.25;2569430;30;138241;-38
2021/11/07 05:07:38;;;;;;;6.57;4.45;;;10.00;99.90;;;8.55;100.00;101180.84;2568673;30;136879;-38
2021/11/07 05:10:07;;;;;;;6.95;4.65;;;10.00;99.90;;;8.53;100.00;101182.09;2570245;30;138281;-38
2021/11/07 05:12:35;;;;;;;7.07;5.03;;;10.10;99.90;;;8.48;100.00;101186.16;2567912;30;137983;-38
2021/11/07 05:15:03;;;;;;;8.85;4.88;;;10.00;99.90;;;8.54;100.00;101176.44;2568809;30;139217;-38
2021/11/07 05:17:30;;;;;;;6.65;4.80;;;10.00;99.90;;;8.57;100.00;101165.19;2568475;30;138378;-38
2021/11/07 05:19:59;;;;;;;7.82;4.68;;;10.00;99.90;;;8.60;100.00;101170.22;2570360;30;136920;-38
2021/11/07 05:22:26;;;;;;;8.57;5.45;;;10.10;99.90;;;8.62;100.00;101164.63;2570998;30;136822;-38
2021/11/07 05:24:54;;;;;;;7.55;5.03;;;10.10;99.90;;;8.65;100.00;101174.28;2567836;38;137224;-38
2021/11/07 05:27:22;;;;;;;;;;;10.10;99.90;;;8.62;100.00;101165.47;2568170;30;136874;-38
2021/11/07 05:29:49;;;;;;;7.13;4.47;;;10.10;99.90;;;8.64;100.00;101173.41;2570311;30;137145;-38
2021/11/07 05:32:17;;;;;;;7.43;4.40;;;10.10;99.90;;;8.62;100.00;101157.31;2569572;30;137573;-38
2021/11/07 05:34:46;;;;;;;9.25;5.53;;;10.10;99.90;;;8.62;100.00;101156.44;2569120;30;137505;-38
2021/11/07 05:37:14;;;;;;;10.50;4.88;;;10.10;99.90;;;8.60;100.00;101158.53;2570157;30;137580;-38
2021/11/07 05:39:41;;;;;;;;;;;10.10;99.90;;;8.63;100.00;101169.03;2569870;30;139072;-38
2021/11/07 05:42:10;;;;;;;6.32;4.00;;;10.10;99.90;;;8.65;100.00;101153.34;2572101;30;137840;-38
2021/11/07 05:44:38;;;;;;;6.68;4.57;;;10.10;99.90;;;8.66;100.00;101149.59;2570220;30;139088;-38
2021/11/07 05:47:06;;;;;;;7.68;4.72;;;10.20;99.90;;;8.65;100.00;101158.78;2570090;30;138439;-38
2021/11/07 05:49:34;;;;;;;;;;;10.10;99.90;;;8.72;100.00;101148.81;2569023;30;137195;-39
2021/11/07 05:52:01;;;;;;;7.55;4.55;;;10.20;99.90;;;8.73;100.00;101139.63;2570479;30;137056;-38
2021/11/07 05:54:29;;;;;;;6.40;4.72;;;10.20;99.90;;;8.74;100.00;101151.34;2568983;30;137118;-38
2021/11/07 05:56:58;;;;;;;7.20;4.70;;;10.20;99.90;;;8.74;100.00;101154.91;2570374;30;138135;-38
2021/11/07 05:59:25;;;;;;;6.97;5.03;;;10.20;99.90;;;8.75;100.00;101147.59;2569174;30;137800;-38
2021/11/07 06:01:53;;;;;;;11.73;5.10;;;10.20;99.90;;;8.74;100.00;101151.34;2569748;30;137421;-38
2021/11/07 06:04:20;;;;;;;6.80;4.75;;;10.20;99.90;;;8.67;100.00;101162.16;2569715;30;137875;-38
2021/11/07 06:06:48;;;;;;;6.90;5.18;;;10.20;99.90;;;8.68;100.00;101154.84;2569969;30;137080;-38
2021/11/07 06:09:15;;;;;;;6.97;4.93;;;10.20;99.90;;;8.65;100.00;101161.50;2567043;30;138346;-38
2021/11/07 06:11:43;;;;;;;7.97;5.60;;;10.20;99.90;;;8.65;100.00;101168.84;2569565;30;137686;-38
2021/11/07 06:14:11;;;;;;;8.48;5.22;;;10.20;99.90;;;8.60;100.00;101172.94;2569505;30;138687;-38
2021/11/07 06:16:38;;;;;;;;;;;10.10;99.90;;;8.68;100.00;101174.72;2570300;30;137487;-38
2021/11/07 06:19:07;;;;;;;8.50;4.95;;;10.10;99.90;;;8.67;100.00;101173.03;2568407;30;138281;-38
2021/11/07 06:21:36;;;;;;;8.20;5.38;;;10.20;99.90;;;8.71;100.00;101168.91;2570897;30;137387;-38
2021/11/07 06:24:07;;;;;;;9.00;5.72;;;10.20;99.90;;;8.71;100.00;101166.16;2569602;30;138805;-38
2021/11/07 06:26:35;;;;;;;8.65;5.78;;;10.20;99.90;;;8.75;100.00;101181.09;2568696;30;136987;-38
2021/11/07 06:29:03;;;;;;;7.30;5.50;;;10.20;99.90;;;8.72;100.00;101186.06;2568531;30;137513;-38
2021/11/07 06:31:31;;;;;;;9.18;5.53;;;10.20;99.90;;;8.65;100.00;101168.84;2568992;30;137512;-38
2021/11/07 06:33:59;;;;;;;8.65;6.10;;;10.20;99.90;;;8.74;100.00;101173.13;2569894;30;139301;-38
2021/11/07 06:36:27;;;;;;;8.00;6.05;;;10.20;99.90;;;8.71;100.00;101181.66;2568063;30;137762;-38
2021/11/07 06:38:54;;;;;;;7.97;5.85;;;10.20;99.90;;;8.72;100.00;101169.75;2570498;30;138317;-38
2021/11/07 06:41:22;;;;;;;8.15;5.10;;;10.20;99.90;;;8.68;100.00;101169.28;2569688;30;137671;-38
2021/11/07 06:43:49;;;;;;;9.25;5.68;;;10.20;99.90;;;8.70;100.00;101179.97;2570278;30;138588;-38
2021/11/07 06:46:18;;;;;;;7.47;5.22;;;10.20;99.90;;;8.71;100.00;101185.22;2567869;30;137046;-38
2021/11/07 06:48:47;;;;;;;8.35;5.22;;;10.20;99.90;;;8.72;100.00;101188.78;2570314;30;137422;-38
2021/11/07 06:51:16;;;;;;;9.38;5.30;;;10.20;99.90;;;8.73;100.00;101188.59;2570308;30;137483;-38
2021/11/07 06:53:44;;;;;;;7.85;5.40;;;10.20;99.90;;;8.78;100.00;101190.75;2568909;30;138968;-38
2021/11/07 06:56:11;;;;;;;7.22;5.10;;;10.20;99.90;;;8.72;100.00;101200.50;2569177;30;137460;-38
2021/11/07 06:58:39;;;;;;;8.73;5.70;;;10.20;99.90;;;8.72;100.00;101195.06;2566571;30;138124;-38
2021/11/07 07:01:07;;;;;;;8.38;5.47;;;10.20;99.90;;;8.70;100.00;101202.56;2568369;30;137081;-38
2021/11/07 07:03:35;;;;;;;9.82;5.63;;;10.20;99.90;;;8.73;100.00;101209.53;2568847;30;138441;-38
2021/11/07 07:06:03;;;;;;;6.75;4.80;;;10.20;99.90;;;8.74;100.00;101208.50;2567475;30;136752;-38
2021/11/07 07:08:41;;;;;;;10.63;5.10;;;10.20;99.90;;;8.74;100.00;101195.72;2568255;30;139259;-38
2021/11/07 07:11:12;;;;;;;7.28;5.13;;;10.20;99.90;;;8.78;100.00;101204.34;2568693;30;138239;-38
2021/11/07 07:14:16;;;;;;;8.95;5.45;;;10.30;99.90;;;8.76;100.00;101199.13;2571976;30;137292;-38
2021/11/07 07:16:41;;;;;;;9.27;5.60;;;10.30;99.90;;;8.77;100.00;101206.25;2567530;30;137464;-38
2021/11/07 07:19:50;;;;;;;8.93;5.45;;;10.30;99.90;;;8.78;100.00;101209.78;2570546;30;139323;-38
2021/11/07 07:35:42;;;;;;;12.80;5.75;;;10.40;99.90;;;8.96;100.00;101203.91;2567554;30;138525;-38
2021/11/07 07:38:09;;;;;;;9.15;5.85;;;10.40;99.90;;;8.97;100.00;101204.78;2571660;30;137506;-38
2021/11/07 07:40:37;;;;;;;8.63;5.82;;;10.40;99.90;;;9.00;100.00;101207.94;2569412;30;138511;-38
2021/11/07 07:43:05;;;;;;;9.85;5.55;;;10.50;99.90;;;9.00;100.00;101202.50;2570320;30;136675;-38
2021/11/07 07:45:32;;;;;;;9.52;5.72;;;10.50;99.90;;;9.01;100.00;101203.34;2567335;30;138804;-39
2021/11/07 07:48:01;;;;;;;9.82;5.63;;;10.50;99.90;;;9.04;100.00;101201.09;2570693;30;136743;-38
2021/11/07 07:50:29;;;;;;;8.30;5.13;;;10.50;99.90;;;9.09;100.00;101205.94;2567740;30;138383;-38
2021/11/07 07:52:57;;;;;;;9.73;5.32;;;10.50;99.90;;;9.13;100.00;101204.50;2569830;30;137121;-38
2021/11/07 07:55:24;;;;;;;8.20;5.40;;;10.60;99.90;;;9.10;100.00;101209.50;2569040;30;137427;-38
2021/11/07 07:57:53;;;;;;;8.07;4.68;;;10.60;99.90;;;9.20;100.00;101210.03;2569598;30;136803;-38
2021/11/07 08:00:21;;;;;;;8.32;4.95;;;10.60;99.90;;;9.27;100.00;101200.03;2569782;30;137362;-38
2021/11/07 08:02:49;;;;;;;10.80;4.82;;;10.70;99.90;;;9.34;100.00;101200.09;2568284;30;138046;-38
2021/11/07 08:05:17;;;;;;;9.38;4.28;;;10.70;99.90;;;9.38;100.00;101212.28;2566374;30;138219;-38
2021/11/07 08:07:45;;;;;;;7.28;4.45;;;10.80;99.90;;;9.42;100.00;101215.47;2570258;30;137066;-38
2021/11/07 08:10:14;;;;;;;8.13;4.05;;;10.80;99.90;;;9.50;100.00;101207.16;2568894;30;138417;-38
2021/11/07 08:12:42;;;;;;;7.30;4.15;;;10.90;99.90;;;9.52;100.00;101215.97;2568784;30;136673;-38
2021/11/07 08:15:13;;;;;;;7.38;4.22;;;10.90;99.90;;;9.56;100.00;101217.31;2566687;30;138427;-38
2021/11/07 08:17:42;;;;;;;8.23;4.15;;;10.90;99.90;;;9.58;99.90;101207.03;2569648;30;138482;-38
2021/11/07 08:20:12;;;;;;;7.07;4.18;;;11.00;99.90;;;9.61;99.90;101209.38;2568594;30;138092;-38
2021/11/07 08:22:43;;;;;;;7.15;3.90;;;11.00;99.90;;;9.61;100.00;101220.28;2568356;30;138174;-38
2021/11/07 08:25:14;;;;;;;6.95;3.85;;;11.00;99.90;;;9.66;100.00;101214.22;2567297;30;138381;-38
2021/11/07 08:27:45;;;;;;;8.77;4.00;;;11.10;99.90;;;9.74;99.56;101207.78;2569460;30;137630;-38
2021/11/07 08:30:17;;;;;;;8.43;4.20;;;11.10;99.90;;;9.74;99.41;101219.53;2569989;30;138458;-38
2021/11/07 08:32:45;;;;;;;9.02;4.18;;;11.10;99.90;;;9.72;98.58;101208.00;2569796;30;138340;-38
2021/11/07 08:35:13;;;;;;;8.75;4.15;;;11.20;99.90;;;9.81;98.50;101222.28;2569851;30;138198;-38
2021/11/07 08:38:07;;;;;;;10.90;4.28;;;11.20;99.90;;;9.87;98.17;101216.06;2568461;30;137563;-38
2021/11/07 08:40:39;;;;;;;8.70;3.90;;;11.20;99.90;;;9.94;97.88;101221.56;2570211;30;138179;-38
2021/11/07 09:05:09;;;;;;;7.90;3.00;;;11.40;99.90;;;10.00;93.99;101248.03;2568949;30;138216;-39
2021/11/07 09:07:51;;;;;;;8.63;3.10;;;11.40;99.90;;;10.07;92.40;101240.75;2580002;30;139118;-40
2021/11/07 09:10:22;;;;;;;8.95;3.00;;;11.50;99.90;;;10.17;91.99;101243.13;2566284;30;137759;-40
2021/11/07 09:12:51;;;;;;;8.70;3.15;;;11.50;99.90;;;10.20;91.29;101245.44;2568148;30;138371;-40
2021/11/07 09:15:22;;;;;;;12.15;3.15;;;11.60;99.90;;;10.26;91.98;101248.41;2566287;30;138202;-40
2021/11/07 09:17:50;;;;;;;10.18;3.45;;;11.60;99.90;;;10.30;90.29;101242.34;2567278;30;138343;-40
2021/11/07 09:20:26;;;;;;;10.88;3.28;;;11.70;99.90;;;10.28;89.37;101239.00;2569274;30;137788;-40
2021/11/07 09:22:58;;;;;;;9.82;2.90;;;11.70;99.90;;;10.27;88.90;101244.63;2568973;30;139037;-40
2021/11/07 09:25:49;;;;;;;7.97;2.88;;;11.70;99.90;;;10.32;90.34;101244.88;2568629;30;136754;-40
2021/11/07 09:38:25;;;;;;;9.65;3.03;;;11.90;99.90;;;10.61;86.82;101243.00;2568019;30;138389;-40
2021/11/07 09:46:32;;;;;;;9.23;2.28;;;12.10;99.90;;;10.81;84.28;101255.84;2567416;30;137444;-40
2021/11/07 09:49:31;;;;;;;5.25;1.83;;;12.10;99.90;;;10.76;82.62;101265.50;2567610;30;139257;-40
2021/11/07 09:52:04;;;;;;;10.85;2.67;;;12.10;99.90;;;10.70;82.43;101260.00;2568335;30;136795;-40
2021/11/07 09:54:34;;;;;;;9.60;2.30;;;12.10;99.90;;;10.76;83.54;101270.97;2567676;30;137403;-40
2021/11/07 09:57:02;;;;;;;11.40;2.47;;;12.10;99.90;;;10.78;83.13;101266.13;2567283;30;137568;-40
2021/11/07 09:59:32;;;;;;;10.05;2.25;;;12.10;99.90;;;10.79;80.88;101256.06;2569475;30;138324;-40
2021/11/07 10:02:01;;;;;;;18.20;2.95;;;12.10;99.90;;;10.77;79.22;101263.63;2567464;30;137437;-40
2021/11/07 10:04:38;;;;;;;11.57;2.17;;;12.10;99.90;;;10.83;79.74;101261.94;2567525;30;138888;-40
2021/11/07 10:07:31;;;;;;;8.38;2.03;;;12.20;99.90;;;10.75;78.32;101255.63;2568195;30;136805;-40
2021/11/07 10:10:06;;;;;;;13.60;2.53;;;12.10;99.90;;;10.86;79.23;101267.84;2569336;30;137417;-40
2021/11/07 10:12:39;;;;;;;9.52;2.45;;;12.20;99.90;;;10.90;78.36;101269.13;2567266;30;137069;-40
2021/11/07 10:15:17;;;;;;;13.50;2.10;;;12.20;99.90;;;10.89;78.23;101263.91;2568080;30;137495;-40
2021/11/07 10:17:57;;;;;;;13.32;2.47;;;12.20;99.90;;;10.91;77.73;101270.00;2568834;30;137352;-40
2021/11/07 10:20:47;;;;;;;11.57;2.38;;;12.30;99.90;;;10.94;77.44;101262.22;2568096;30;137823;-40
2021/11/07 10:23:27;;;;;;;12.98;2.38;;;12.30;99.90;;;10.96;76.77;101250.25;2565781;30;137361;-40
2021/11/07 10:26:13;;;;;;;8.52;1.77;;;12.30;99.90;;;10.94;74.95;101255.94;2568792;30;138664;-40
2021/11/07 10:28:48;;;;;;;12.80;2.17;;;12.30;99.90;;;10.85;76.08;101251.66;2569107;30;137383;-40
2021/11/07 10:34:06;;;;;;;8.77;1.98;;;12.20;99.90;;;10.97;75.26;101252.78;2567252;30;138302;-40
2021/11/07 10:37:57;;;;;;;9.52;1.85;;;12.20;99.90;;;11.25;77.31;101260.00;2568320;30;137102;-40
2021/11/07 10:40:08;;;;;;;11.57;2.25;;;12.40;99.90;;;11.52;74.01;101262.78;2569354;30;137636;-40
2021/11/07 10:54:26;;;;;;;8.48;2.20;;;13.40;99.90;;;12.18;68.02;101255.66;2565742;30;139309;-40
2021/11/07 10:57:19;;;;;;;14.35;2.13;;;13.50;99.90;;;12.08;67.52;101258.84;2569104;30;137556;-40
2021/11/07 11:00:16;;;;;;;11.15;2.25;;;13.40;99.90;;;12.01;69.05;101255.25;2566022;30;139303;-40
2021/11/07 11:02:55;;;;;;;9.55;1.55;;;13.30;99.90;;;11.93;68.79;101260.91;2567929;30;137660;-40
2021/11/07 11:05:32;;;;;;;9.70;2.00;;;13.30;99.90;;;11.85;69.07;101252.94;2568493;30;136807;-40
2021/11/07 11:08:09;;;;;;;9.25;2.03;;;13.20;99.90;;;11.75;71.22;101248.72;2568683;30;136996;-40
2021/11/07 11:16:35;;;;;;;13.83;1.83;;;13.00;99.90;;;11.50;68.58;101234.84;2568128;30;137207;-40
2021/11/07 11:22:10;;;;;;;10.75;2.00;;;12.80;99.90;;;11.42;68.57;101248.69;2566146;30;138659;-40
2021/11/07 11:25:14;;;;;;;15.45;1.90;;;12.80;99.90;;;11.60;67.62;101246.19;2568402;30;136874;-40
2021/11/07 11:43:33;;;;;;;12.18;2.65;;;13.00;99.90;;;11.72;68.21;101232.72;2568313;30;138969;-40
2021/11/07 11:46:20;;;;;;;9.75;1.73;;;13.00;99.90;;;11.62;66.29;101241.34;2567981;30;137615;-40
2021/11/07 11:57:56;;;;;;;13.95;2.70;;;12.80;99.90;;;11.42;69.28;101221.38;2566225;30;137117;-40
2021/11/07 12:06:56;;;;;;;10.77;1.92;;;12.90;99.90;;;12.10;70.32;101209.38;2567866;30;137842;-40
2021/11/07 12:09:34;;;;;;;9.73;1.67;;;13.20;99.90;;;12.30;67.05;101217.53;2568289;30;138168;-40
2021/11/07 12:12:15;;;;;;;9.77;1.90;;;13.40;99.90;;;12.33;65.69;101206.19;2568060;30;137263;-40
2021/11/07 12:17:38;;;;;;;9.05;1.60;;;13.70;99.90;;;12.25;64.30;101203.66;2567436;30;138465;-40
2021/11/07 12:20:37;;;;;;;11.80;2.03;;;13.60;99.90;;;12.25;65.74;101202.84;2569084;30;136840;-40
2021/11/07 12:23:27;;;;;;;8.80;1.97;;;13.60;99.90;;;12.27;65.11;101206.19;2567528;30;137916;-40
2021/11/07 12:26:20;;;;;;;9.88;2.00;;;13.60;99.90;;;12.35;66.01;101214.16;2566627;30;137520;-40
2021/11/07 12:28:54;;;;;;;9.02;1.83;;;13.60;99.90;;;12.54;64.99;101219.81;2565857;30;139393;-40
2021/11/07 12:31:24;;;;;;;7.30;1.67;;;13.70;99.90;;;12.61;64.10;101218.72;2568303;30;136982;-40
2021/11/07 12:34:06;;;;;;;9.77;2.15;;;13.80;99.90;;;12.59;63.14;101211.78;2568117;30;138100;-40
2021/11/07 12:42:24;;;;;;;11.00;1.85;;;13.90;99.90;;;12.35;63.04;101205.97;2566240;30;137493;-40
2021/11/07 12:44:54;;;;;;;12.40;1.88;;;13.80;99.90;;;12.23;64.03;101205.78;2567348;30;138267;-40
2021/11/07 12:47:24;;;;;;;5.68;1.50;;;13.60;99.90;;;12.40;64.60;101210.78;2565606;30;137430;-40
2021/11/07 12:50:03;;;;;;;8.40;2.08;;;13.70;99.90;;;12.62;64.61;101200.41;2566724;30;137474;-40
2021/11/07 12:52:52;;;;;;;13.82;2.08;;;13.80;99.90;;;12.65;63.78;101205.44;2567248;30;137746;-40
2021/11/07 12:55:39;;;;;;;9.73;1.80;;;13.90;99.90;;;12.47;63.73;101207.00;2567457;30;138237;-40
2021/11/07 12:58:07;;;;;;;8.50;1.73;;;13.90;99.90;;;12.21;64.72;101207.88;2568329;30;137666;-40
2021/11/07 13:00:34;;;;;;;8.65;1.98;;;13.70;99.90;;;12.05;64.77;101198.25;2567103;30;138496;-40